createdAt,value
2023-02-23T00:01:29.972Z,98706.85
2023-02-23T00:04:07.399Z,98708.48
2023-02-23T00:06:44.318Z,98712.80
2023-02-23T00:12:22.790Z,98717.61
2023-02-23T00:14:58.441Z,98712.20
2023-02-23T00:18:05.847Z,98714.91
2023-02-23T00:20:47.515Z,98716.69
2023-02-23T00:23:49.666Z,98712.22
2023-02-23T00:26:26.632Z,98713.30
2023-02-23T00:32:24.385Z,98715.11
2023-02-23T00:35:46.289Z,98719.45
2023-02-23T00:39:20.101Z,98715.78
2023-02-23T00:41:55.940Z,98712.41
2023-02-23T00:44:56.057Z,98710.89
2023-02-23T00:47:30.975Z,98714.09
2023-02-23T00:50:55.970Z,98711.07
2023-02-23T00:53:30.391Z,98712.18
2023-02-23T00:56:29.850Z,98711.07
2023-02-23T00:59:31.513Z,98710.94
2023-02-23T01:02:36.183Z,98710.42
2023-02-23T01:05:14.747Z,98712.23
2023-02-23T01:07:51.418Z,98709.25
2023-02-23T01:11:13.992Z,98708.48
2023-02-23T01:14:12.273Z,98711.00
2023-02-23T01:16:49.127Z,98713.16
2023-02-23T01:19:24.787Z,98708.31
2023-02-23T01:21:56.732Z,98705.33
2023-02-23T01:24:30.589Z,98703.27
2023-02-23T01:27:07.196Z,98703.75
2023-02-23T01:30:10.280Z,98702.92
2023-02-23T01:32:43.528Z,98701.05
2023-02-23T01:35:20.535Z,98698.63
2023-02-23T01:37:59.816Z,98699.58
2023-02-23T01:40:36.741Z,98695.16
2023-02-23T01:43:42.673Z,98691.27
2023-02-23T01:46:15.872Z,98692.15
2023-02-23T01:48:51.290Z,98690.23
2023-02-23T01:51:54.915Z,98685.55
2023-02-23T01:55:00.775Z,98682.30
2023-02-23T01:57:36.860Z,98677.77
2023-02-23T02:00:15.074Z,98671.63
2023-02-23T02:03:48.349Z,98673.06
2023-02-23T02:06:23.448Z,98664.37
2023-02-23T02:09:04.508Z,98662.71
2023-02-23T02:11:47.963Z,98661.00
2023-02-23T02:14:51.074Z,98656.70
2023-02-23T02:17:59.832Z,98654.17
2023-02-23T02:25:01.159Z,98646.67
2023-02-23T02:28:30.001Z,98651.14
2023-02-23T02:32:18.491Z,98654.20
2023-02-23T02:35:56.983Z,98652.08
2023-02-23T02:38:43.947Z,98650.00
2023-02-23T02:41:45.565Z,98653.02
2023-02-23T02:44:51.921Z,98650.84
2023-02-23T02:47:31.120Z,98650.90
2023-02-23T02:53:13.532Z,98646.56
2023-02-23T02:58:46.568Z,98641.73
2023-02-23T03:09:34.730Z,98635.80
2023-02-23T03:12:54.458Z,98635.88
2023-02-23T03:16:07.960Z,98634.40
2023-02-23T03:19:18.136Z,98638.52
2023-02-23T03:22:36.123Z,98639.17
2023-02-23T03:25:54.129Z,98638.21
2023-02-23T03:29:24.141Z,98633.08
2023-02-23T03:32:34.114Z,98633.98
2023-02-23T03:35:35.789Z,98633.25
2023-02-23T03:39:16.768Z,98634.86
2023-02-23T03:42:19.858Z,98633.77
2023-02-23T03:45:18.247Z,98634.98
2023-02-23T03:48:41.602Z,98634.56
2023-02-23T03:51:35.968Z,98636.59
2023-02-23T03:55:16.010Z,98639.16
2023-02-23T03:58:16.796Z,98639.31
2023-02-23T04:01:42.754Z,98640.55
2023-02-23T04:08:40.745Z,98642.40
2023-02-23T04:12:17.829Z,98638.42
2023-02-23T04:15:04.083Z,98638.58
2023-02-23T04:17:45.917Z,98637.54
2023-02-23T04:20:26.074Z,98636.89
2023-02-23T04:23:00.614Z,98635.65
2023-02-23T04:25:39.311Z,98635.66
2023-02-23T04:28:13.483Z,98635.64
2023-02-23T04:30:45.552Z,98634.59
2023-02-23T04:33:20.323Z,98633.41
2023-02-23T04:36:43.046Z,98635.10
2023-02-23T04:39:20.716Z,98632.55
2023-02-23T04:41:57.626Z,98632.11
2023-02-23T04:44:59.144Z,98632.97
2023-02-23T04:47:33.061Z,98628.88
2023-02-23T04:50:53.645Z,98625.95
2023-02-23T04:53:30.311Z,98622.60
2023-02-23T04:56:05.366Z,98621.73
2023-02-23T04:58:40.813Z,98626.66
2023-02-23T05:01:17.080Z,98621.98
2023-02-23T05:04:41.769Z,98623.02
2023-02-23T05:07:14.464Z,98622.95
2023-02-23T05:09:54.182Z,98624.97
2023-02-23T05:13:18.268Z,98624.77
2023-02-23T05:15:53.010Z,98619.30
2023-02-23T05:18:27.512Z,98622.45
2023-02-23T05:21:30.209Z,98617.32
2023-02-23T05:24:28.117Z,98623.39
2023-02-23T05:27:06.567Z,98625.87
2023-02-23T05:29:39.237Z,98623.45
2023-02-23T05:32:13.595Z,98628.86
2023-02-23T05:34:48.621Z,98629.66
2023-02-23T05:37:24.055Z,98624.81
2023-02-23T05:40:22.462Z,98629.11
2023-02-23T05:42:54.352Z,98627.55
2023-02-23T05:45:29.053Z,98626.33
2023-02-23T05:48:31.491Z,98629.15
2023-02-23T05:51:32.602Z,98627.59
2023-02-23T05:54:09.377Z,98629.52
2023-02-23T05:57:30.998Z,98628.13
2023-02-23T06:00:09.097Z,98632.28
2023-02-23T06:03:09.847Z,98630.13
2023-02-23T06:05:44.114Z,98629.12
2023-02-23T06:09:05.606Z,98628.88
2023-02-23T06:11:39.992Z,98627.84
2023-02-23T06:14:18.022Z,98630.96
2023-02-23T06:17:40.800Z,98633.00
2023-02-23T06:20:20.126Z,98635.95
2023-02-23T06:22:56.248Z,98638.63
2023-02-23T06:25:29.887Z,98640.70
2023-02-23T06:28:04.209Z,98640.45
2023-02-23T06:30:39.041Z,98642.63
2023-02-23T06:33:14.603Z,98643.10
2023-02-23T06:35:57.509Z,98640.20
2023-02-23T06:38:33.788Z,98644.98
2023-02-23T06:41:36.554Z,98641.66
2023-02-23T06:44:17.280Z,98644.52
2023-02-23T06:46:53.613Z,98642.73
2023-02-23T06:52:49.972Z,98646.76
2023-02-23T06:55:23.367Z,98649.09
2023-02-23T06:57:58.300Z,98644.95
2023-02-23T07:00:59.792Z,98647.05
2023-02-23T07:03:36.724Z,98646.64
2023-02-23T07:06:16.354Z,98649.77
2023-02-23T07:08:50.838Z,98646.42
2023-02-23T07:11:52.742Z,98645.90
2023-02-23T07:14:27.674Z,98651.96
2023-02-23T07:17:00.230Z,98650.74
2023-02-23T07:19:33.793Z,98646.06
2023-02-23T07:22:18.464Z,98652.30
2023-02-23T07:28:18.466Z,98649.48
2023-02-23T07:31:16.405Z,98644.31
2023-02-23T07:33:55.123Z,98647.55
2023-02-23T07:36:29.354Z,98650.27
2023-02-23T07:39:29.361Z,98644.42
2023-02-23T07:42:07.983Z,98640.45
2023-02-23T07:44:41.261Z,98637.95
2023-02-23T07:47:19.616Z,98634.32
2023-02-23T07:49:56.128Z,98629.64
2023-02-23T07:53:16.832Z,98630.84
2023-02-23T07:55:50.491Z,98632.63
2023-02-23T07:58:25.275Z,98634.34
2023-02-23T08:01:03.911Z,98627.77
2023-02-23T08:04:23.719Z,98629.09
2023-02-23T08:07:23.508Z,98627.69
2023-02-23T08:09:59.916Z,98623.40
2023-02-23T08:12:37.826Z,98625.04
2023-02-23T08:15:13.104Z,98626.38
2023-02-23T08:18:10.560Z,98626.09
2023-02-23T08:20:45.003Z,98620.09
2023-02-23T08:23:47.222Z,98615.23
2023-02-23T08:26:21.106Z,98615.61
2023-02-23T08:29:24.200Z,98612.70
2023-02-23T08:31:58.362Z,98611.71
2023-02-23T08:34:55.612Z,98613.27
2023-02-23T08:37:32.619Z,98616.80
2023-02-23T08:40:32.248Z,98616.14
2023-02-23T08:43:11.363Z,98614.15
2023-02-23T08:45:45.658Z,98618.52
2023-02-23T08:48:44.323Z,98612.09
2023-02-23T08:51:21.460Z,98607.47
2023-02-23T08:53:53.551Z,98603.23
2023-02-23T08:56:27.628Z,98604.76
2023-02-23T08:59:00.800Z,98601.61
2023-02-23T09:01:38.867Z,98601.12
2023-02-23T09:04:12.267Z,98601.66
2023-02-23T09:06:46.994Z,98602.85
2023-02-23T09:09:20.931Z,98599.75
2023-02-23T09:11:55.365Z,98598.95
2023-02-23T09:14:32.507Z,98596.77
2023-02-23T09:17:34.566Z,98596.73
2023-02-23T09:20:13.591Z,98590.34
2023-02-23T09:22:49.865Z,98587.27
2023-02-23T09:25:24.182Z,98581.17
2023-02-23T09:27:59.678Z,98579.80
2023-02-23T09:30:34.910Z,98578.35
2023-02-23T09:33:09.070Z,98574.13
2023-02-23T09:35:43.638Z,98567.37
2023-02-23T09:38:15.741Z,98565.47
2023-02-23T09:40:56.982Z,98571.37
2023-02-23T09:43:35.301Z,98582.80
2023-02-23T09:46:58.745Z,98580.86
2023-02-23T09:50:01.270Z,98585.92
2023-02-23T09:52:42.468Z,98586.23
2023-02-23T09:59:02.964Z,98587.29
2023-02-23T10:02:00.332Z,98582.45
2023-02-23T10:04:42.557Z,98578.67
2023-02-23T10:10:53.296Z,98574.02
2023-02-23T10:13:57.316Z,98572.12
2023-02-23T10:16:39.033Z,98566.66
2023-02-23T10:19:20.934Z,98566.59
2023-02-23T10:22:02.025Z,98565.11
2023-02-23T10:24:38.253Z,98565.55
2023-02-23T10:33:50.597Z,98562.78
2023-02-23T10:36:37.648Z,98563.88
2023-02-23T10:39:34.678Z,98561.61
2023-02-23T10:42:57.137Z,98561.61
2023-02-23T10:45:32.582Z,98552.67
2023-02-23T10:48:10.465Z,98546.89
2023-02-23T10:50:45.767Z,98537.59
2023-02-23T10:53:24.228Z,98534.42
2023-02-23T10:56:10.773Z,98532.11
2023-02-23T10:58:51.240Z,98525.05
2023-02-23T11:02:01.045Z,98525.02
2023-02-23T11:04:39.929Z,98518.34
2023-02-23T11:07:20.320Z,98514.45
2023-02-23T11:09:53.531Z,98514.26
2023-02-23T11:12:39.318Z,98506.69
2023-02-23T11:15:46.368Z,98502.46
2023-02-23T11:18:27.334Z,98500.66
2023-02-23T11:24:32.253Z,98495.29
2023-02-23T11:30:13.679Z,98491.23
2023-02-23T11:33:12.707Z,98486.06
2023-02-23T11:36:11.560Z,98485.50
2023-02-23T11:38:49.709Z,98484.27
2023-02-23T11:42:10.531Z,98484.11
2023-02-23T11:44:47.692Z,98480.27
2023-02-23T11:47:24.237Z,98476.20
2023-02-23T11:49:59.599Z,98475.32
2023-02-23T11:52:37.962Z,98475.52
2023-02-23T11:55:20.608Z,98471.48
2023-02-23T11:58:03.036Z,98472.84
2023-02-23T12:00:38.213Z,98474.38
2023-02-23T12:03:26.445Z,98467.30
2023-02-23T12:06:04.883Z,98469.03
2023-02-23T12:09:07.560Z,98464.22
2023-02-23T12:15:39.564Z,98458.24
2023-02-23T12:18:20.871Z,98456.64
2023-02-23T12:21:26.298Z,98454.35
2023-02-23T12:24:26.346Z,98450.46
2023-02-23T12:27:49.973Z,98447.02
2023-02-23T12:36:57.554Z,98431.38
2023-02-23T12:39:33.336Z,98429.20
2023-02-23T12:42:57.566Z,98424.36
2023-02-23T12:49:06.696Z,98417.61
2023-02-23T12:51:45.115Z,98412.95
2023-02-23T12:54:24.173Z,98409.16
2023-02-23T12:57:27.982Z,98406.18
2023-02-23T13:00:35.290Z,98398.98
2023-02-23T13:03:52.316Z,98394.20
2023-02-23T13:06:40.778Z,98392.05
2023-02-23T13:09:49.077Z,98390.38
2023-02-23T13:12:38.235Z,98385.48
2023-02-23T13:15:40.845Z,98382.00
2023-02-23T13:21:45.460Z,98374.58
2023-02-23T13:24:41.936Z,98378.08
2023-02-23T13:27:25.103Z,98374.51
2023-02-23T13:30:00.961Z,98374.51
2023-02-23T13:32:39.465Z,98367.63
2023-02-23T13:35:41.504Z,98360.20
2023-02-23T13:38:27.140Z,98359.05
2023-02-23T13:41:10.250Z,98353.54
2023-02-23T13:47:27.904Z,98350.61
2023-02-23T13:50:31.714Z,98345.95
2023-02-23T13:53:09.319Z,98342.14
2023-02-23T13:55:55.051Z,98341.97
2023-02-23T13:59:21.067Z,98335.96
2023-02-23T14:01:55.168Z,98335.21
2023-02-23T14:04:52.993Z,98332.14
2023-02-23T14:07:56.710Z,98325.38
2023-02-23T14:10:37.512Z,98333.05
2023-02-23T14:13:57.675Z,98332.51
2023-02-23T14:16:37.705Z,98330.14
2023-02-23T14:19:39.974Z,98328.46
2023-02-23T14:22:18.590Z,98325.42
2023-02-23T14:25:36.988Z,98321.63
2023-02-23T14:32:07.597Z,98317.45
2023-02-23T14:35:37.182Z,98314.45
2023-02-23T14:38:48.002Z,98313.46
2023-02-23T14:41:52.035Z,98311.31
2023-02-23T14:44:31.161Z,98312.30
2023-02-23T14:47:30.353Z,98311.13
2023-02-23T14:50:05.060Z,98311.64
2023-02-23T14:52:45.505Z,98307.77
2023-02-23T14:55:29.574Z,98305.88
2023-02-23T15:02:00.734Z,98301.13
2023-02-23T15:04:38.654Z,98301.11
2023-02-23T15:08:03.591Z,98299.96
2023-02-23T15:10:44.360Z,98297.86
2023-02-23T15:13:45.113Z,98295.77
2023-02-23T15:16:45.257Z,98290.72
2023-02-23T15:19:26.034Z,98289.23
2023-02-23T15:22:47.655Z,98283.66
2023-02-23T15:25:31.224Z,98282.29
2023-02-23T15:28:21.713Z,98275.98
2023-02-23T15:30:58.119Z,98276.04
2023-02-23T15:34:00.097Z,98269.44
2023-02-23T15:37:01.398Z,98274.11
2023-02-23T15:40:00.364Z,98273.30
2023-02-23T15:43:00.728Z,98272.25
2023-02-23T15:46:01.614Z,98271.08
2023-02-23T15:48:48.562Z,98271.70
2023-02-23T15:51:35.761Z,98266.65
2023-02-23T16:01:28.245Z,98263.86
2023-02-23T16:04:09.410Z,98262.34
2023-02-23T16:07:20.280Z,98264.30
2023-02-23T16:09:56.254Z,98264.86
2023-02-23T16:16:02.025Z,98270.67
2023-02-23T16:18:44.877Z,98267.86
2023-02-23T16:21:22.632Z,98263.85
2023-02-23T16:23:59.197Z,98264.72
2023-02-23T16:26:38.221Z,98267.18
2023-02-23T16:29:46.766Z,98263.51
2023-02-23T16:32:26.776Z,98262.11
2023-02-23T16:35:52.131Z,98259.84
2023-02-23T16:38:29.758Z,98260.02
2023-02-23T16:41:07.727Z,98259.66
2023-02-23T16:43:45.988Z,98259.48
2023-02-23T16:46:19.653Z,98261.59
2023-02-23T16:49:17.288Z,98256.67
2023-02-23T16:51:51.425Z,98260.34
2023-02-23T16:54:23.779Z,98259.48
2023-02-23T16:56:59.678Z,98257.36
2023-02-23T16:59:36.611Z,98261.94
2023-02-23T17:02:18.043Z,98256.50
2023-02-23T17:04:52.832Z,98257.38
2023-02-23T17:07:34.755Z,98254.92
2023-02-23T17:10:14.676Z,98256.70
2023-02-23T17:13:18.382Z,98260.02
2023-02-23T17:15:53.918Z,98265.45
2023-02-23T17:19:18.122Z,98265.27
2023-02-23T17:22:19.197Z,98267.52
2023-02-23T17:24:59.821Z,98266.32
2023-02-23T17:28:23.510Z,98265.96
2023-02-23T17:30:59.093Z,98265.60
2023-02-23T17:33:34.813Z,98261.75
2023-02-23T17:36:11.534Z,98261.23
2023-02-23T17:38:48.899Z,98261.57
2023-02-23T17:41:26.933Z,98257.54
2023-02-23T17:53:27.716Z,98251.41
2023-02-23T17:56:00.640Z,98251.41
2023-02-23T17:58:38.536Z,98245.98
2023-02-23T18:01:12.664Z,98244.58
2023-02-23T18:03:49.213Z,98241.08
2023-02-23T18:06:48.729Z,98242.84
2023-02-23T18:09:22.570Z,98246.15
2023-02-23T18:12:22.496Z,98245.97
2023-02-23T18:15:25.072Z,98245.09
2023-02-23T18:18:26.824Z,98238.95
2023-02-23T18:21:08.349Z,98233.85
2023-02-23T18:23:43.300Z,98232.13
2023-02-23T18:26:17.954Z,98227.04
2023-02-23T18:28:52.191Z,98227.21
2023-02-23T18:32:22.426Z,98219.67
2023-02-23T18:35:02.022Z,98218.78
2023-02-23T18:37:41.027Z,98219.30
2023-02-23T18:40:21.628Z,98213.52
2023-02-23T18:43:21.865Z,98219.13
2023-02-23T18:52:43.140Z,98209.85
2023-02-23T18:56:04.133Z,98203.20
2023-02-23T18:58:43.406Z,98202.14
2023-02-23T19:01:41.579Z,98202.79
2023-02-23T19:07:22.294Z,98194.55
2023-02-23T19:10:30.042Z,98198.05
2023-02-23T19:13:09.333Z,98194.39
2023-02-23T19:15:43.793Z,98184.41
2023-02-23T19:18:24.047Z,98187.44
2023-02-23T19:21:01.060Z,98185.68
2023-02-23T19:23:37.494Z,98186.05
2023-02-23T19:27:24.015Z,98181.49
2023-02-23T19:30:25.118Z,98183.05
2023-02-23T19:33:01.261Z,98176.92
2023-02-23T19:35:35.512Z,98182.18
2023-02-23T19:38:16.159Z,98184.10
2023-02-23T19:40:49.801Z,98180.61
2023-02-23T19:43:24.059Z,98177.12
2023-02-23T19:49:04.604Z,98181.15
2023-02-23T19:51:39.333Z,98179.91
2023-02-23T19:54:12.160Z,98174.48
2023-02-23T19:57:11.559Z,98170.64
2023-02-23T19:59:44.752Z,98169.59
2023-02-23T20:02:20.431Z,98169.23
2023-02-23T20:05:01.800Z,98169.41
2023-02-23T20:07:37.181Z,98170.83
2023-02-23T20:10:16.506Z,98172.39
2023-02-23T20:13:14.834Z,98172.58
2023-02-23T20:19:15.364Z,98163.47
2023-02-23T20:21:51.726Z,98162.95
2023-02-23T20:24:27.658Z,98161.90
2023-02-23T20:27:53.197Z,98159.27
2023-02-23T20:30:55.853Z,98158.75
2023-02-23T20:33:30.493Z,98155.77
2023-02-23T20:39:12.526Z,98149.30
2023-02-23T20:41:48.190Z,98139.48
2023-02-23T20:44:26.247Z,98137.38
2023-02-23T20:47:00.985Z,98138.60
2023-02-23T20:49:35.329Z,98133.70
2023-02-23T20:52:12.587Z,98132.11
2023-02-23T20:58:15.126Z,98130.17
2023-02-23T21:00:50.838Z,98129.13
2023-02-23T21:04:13.171Z,98133.52
2023-02-23T21:07:37.418Z,98129.30
2023-02-23T21:11:03.755Z,98123.70
2023-02-23T21:13:41.095Z,98120.02
2023-02-23T21:16:19.497Z,98118.97
2023-02-23T21:19:46.837Z,98115.09
2023-02-23T21:22:44.828Z,98111.42
2023-02-23T21:25:20.657Z,98112.65
2023-02-23T21:27:55.214Z,98107.73
2023-02-23T21:30:55.044Z,98106.70
2023-02-23T21:33:29.615Z,98102.48
2023-02-23T21:36:06.221Z,98104.23
2023-02-23T21:38:38.702Z,98102.84
2023-02-23T21:41:15.557Z,98099.48
2023-02-23T21:43:55.110Z,98096.33
2023-02-23T21:46:52.910Z,98096.69
2023-02-23T21:49:50.520Z,98093.53
2023-02-23T21:55:27.913Z,98084.06
2023-02-23T21:58:01.279Z,98083.20
2023-02-23T22:00:35.885Z,98083.39
2023-02-23T22:03:12.906Z,98081.11
2023-02-23T22:05:47.749Z,98081.28
2023-02-23T22:08:47.688Z,98075.67
2023-02-23T22:11:48.988Z,98079.90
2023-02-23T22:14:50.912Z,98076.73
2023-02-23T22:18:11.756Z,98069.91
2023-02-23T22:21:09.904Z,98063.78
2023-02-23T22:23:47.050Z,98065.55
2023-02-23T22:26:54.256Z,98065.56
2023-02-23T22:29:54.379Z,98059.08
2023-02-23T22:32:35.125Z,98058.20
2023-02-23T22:35:33.945Z,98057.16
2023-02-23T22:38:31.614Z,98054.19
2023-02-23T22:41:07.411Z,98057.70
2023-02-23T22:44:32.782Z,98054.02
2023-02-23T22:47:08.146Z,98052.80
2023-02-23T22:53:04.969Z,98046.86
2023-02-23T22:55:49.155Z,98044.77
2023-02-23T22:58:24.746Z,98049.15
2023-02-23T23:01:05.382Z,98045.80
2023-02-23T23:03:49.118Z,98042.30
2023-02-23T23:06:49.445Z,98039.16
2023-02-23T23:09:28.066Z,98037.95
2023-02-23T23:12:53.076Z,98032.70
2023-02-23T23:18:34.699Z,98025.69
2023-02-23T23:21:16.071Z,98027.09
2023-02-23T23:23:50.523Z,98023.59
2023-02-23T23:26:28.772Z,98018.34
2023-02-23T23:29:33.418Z,98013.42
2023-02-23T23:32:13.148Z,98011.86
2023-02-23T23:34:51.961Z,98008.55
2023-02-23T23:37:50.570Z,98004.86
2023-02-23T23:40:25.675Z,98007.30
2023-02-23T23:43:04.422Z,98004.69
2023-02-23T23:49:06.582Z,98001.02
2023-02-23T23:52:08.883Z,97997.51
2023-02-23T23:54:47.499Z,97996.98
2023-02-23T23:57:21.956Z,97992.61
2023-02-23T23:59:59.642Z,97989.63
